Time;durP1;ratioP1;P1;durP2;ratioP2;P2;SDS_P1;SDS_P2;PMS_P1;PMS_P2;Temp;Humidity;BMP_temperature;BMP_pressure;BME280_temperature;BME280_humidity;BME280_pressure;Samples;Min_cycle;Max_cycle;Signal;HPM_P1;HPM_P2
2022/07/27 00:00:55;;;;;;;;;;;;;;;24.30;52.22;99624.38;4402469;32;20355;-92
2022/07/27 00:03:22;;;;;;;;;;;;;;;24.42;52.08;99634.47;4416608;32;20041;-91
2022/07/27 00:05:49;;;;;;;;;;;;;;;24.40;51.46;99636.28;4416265;32;19982;-92
2022/07/27 00:08:19;;;;;;;;;;;;;;;24.39;51.17;99634.56;4424637;32;19996;-92
2022/07/27 00:10:46;;;;;;;;;;;;;;;24.47;50.74;99637.75;4403047;32;20367;-88
2022/07/27 00:13:13;;;;;;;;;;;;;;;24.57;50.31;99639.09;4352235;32;20015;-89
2022/07/27 00:15:40;;;;;;;;;;;;;;;24.46;51.07;99638.69;4402489;32;20881;-89
2022/07/27 00:18:10;;;;;;;;;;;;;;;24.23;51.29;99636.16;4402346;32;19981;-92
2022/07/27 00:20:38;;;;;;;;;;;;;;;24.37;50.62;99641.72;4416307;32;20315;-93
2022/07/27 00:23:05;;;;;;;;;;;;;;;24.27;51.13;99632.47;4415413;32;19994;-92
2022/07/27 00:25:34;;;;;;;;;;;;;;;24.24;51.39;99640.53;4420966;32;20358;-90
2022/07/27 00:28:00;;;;;;;;;;;;;;;24.20;51.61;99637.16;4422369;32;19982;-88
2022/07/27 00:30:28;;;;;;;;;;;;;;;24.12;52.07;99640.16;4416286;32;19986;-89
2022/07/27 00:32:55;;;;;;;;;;;;;;;24.24;51.13;99636.09;4416186;32;20006;-88
2022/07/27 00:35:22;;;;;;;;;;;;;;;24.10;51.58;99633.19;4416840;32;20387;-89
2022/07/27 00:37:49;;;;;;;;;;;;;;;24.01;51.92;99639.72;4416563;32;20025;-89
2022/07/27 00:40:16;;;;;;;;;;;;;;;24.10;51.54;99636.69;4421877;32;19992;-88
2022/07/27 00:42:43;;;;;;;;;;;;;;;23.77;52.46;99631.06;4419256;32;20036;-89
2022/07/27 00:45:10;;;;;;;;;;;;;;;23.97;51.98;99637.28;4414802;32;19978;-89
2022/07/27 00:47:37;;;;;;;;;;;;;;;23.98;51.80;99639.84;4415706;32;20017;-88
2022/07/27 00:50:04;;;;;;;;;;;;;;;23.83;52.13;99637.84;4416418;32;20037;-89
2022/07/27 00:52:31;;;;;;;;;;;;;;;23.80;52.18;99633.56;4416150;32;20001;-90
2022/07/27 00:54:59;;;;;;;;;;;;;;;23.97;51.63;99632.00;4377256;32;19986;-90
2022/07/27 00:57:26;;;;;;;;;;;;;;;23.97;51.00;99632.84;4391425;32;19994;-89
2022/07/27 00:59:53;;;;;;;;;;;;;;;23.84;51.49;99631.66;4400676;32;19982;-90
2022/07/27 01:02:20;;;;;;;;;;;;;;;24.08;50.32;99627.97;4400491;32;20004;-91
2022/07/27 01:04:50;;;;;;;;;;;;;;;24.09;50.20;99632.34;4404316;32;20018;-91
2022/07/27 01:07:23;;;;;;;;;;;;;;;23.86;50.67;99629.78;4404712;32;19986;-86
2022/07/27 01:09:56;;;;;;;;;;;;;;;24.10;49.52;99636.69;4407546;32;19990;-88
2022/07/27 01:12:28;;;;;;;;;;;;;;;24.12;48.76;99626.03;4404566;32;20036;-88
2022/07/27 01:14:56;;;;;;;;;;;;;;;24.07;48.72;99638.62;4405962;32;20270;-88
2022/07/27 01:17:24;;;;;;;;;;;;;;;23.81;49.77;99634.44;4402061;32;20085;-88
2022/07/27 01:19:51;;;;;;;;;;;;;;;23.96;49.13;99641.69;4402626;32;20084;-88
2022/07/27 01:22:18;;;;;;;;;;;;;;;24.07;48.49;99643.91;4407341;32;20080;-89
2022/07/27 01:24:45;;;;;;;;;;;;;;;24.03;48.54;99643.19;4399189;32;19975;-90
2022/07/27 01:27:12;;;;;;;;;;;;;;;24.00;48.47;99643.31;4402379;32;20041;-88
2022/07/27 01:29:39;;;;;;;;;;;;;;;24.05;48.72;99641.31;4432686;32;19986;-89
2022/07/27 01:32:06;;;;;;;;;;;;;;;24.13;48.13;99633.91;4431023;32;20329;-90
2022/07/27 01:34:33;;;;;;;;;;;;;;;24.14;47.64;99629.50;4417089;32;19991;-89
2022/07/27 01:37:01;;;;;;;;;;;;;;;24.04;48.14;99634.31;4423202;32;19990;-89
2022/07/27 01:39:28;;;;;;;;;;;;;;;24.05;48.54;99637.81;4433025;32;19981;-90
2022/07/27 01:41:55;;;;;;;;;;;;;;;24.03;48.75;99637.88;4437562;32;20052;-88
2022/07/27 01:44:22;;;;;;;;;;;;;;;23.86;49.31;99641.22;4432466;32;19998;-89
2022/07/27 01:46:49;;;;;;;;;;;;;;;23.87;49.80;99647.41;4429529;32;19993;-90
2022/07/27 01:49:16;;;;;;;;;;;;;;;23.73;50.52;99645.31;4432809;32;19985;-89
2022/07/27 01:51:43;;;;;;;;;;;;;;;23.69;50.62;99648.16;4431180;32;20001;-89
2022/07/27 01:54:10;;;;;;;;;;;;;;;23.76;50.69;99639.03;4420630;32;19981;-89
2022/07/27 01:56:37;;;;;;;;;;;;;;;23.57;51.22;99636.25;4428207;32;20057;-89
2022/07/27 01:59:04;;;;;;;;;;;;;;;23.71;51.08;99630.41;4441262;32;19978;-90
2022/07/27 02:01:31;;;;;;;;;;;;;;;23.74;50.97;99625.00;4435105;32;20332;-88
2022/07/27 02:03:59;;;;;;;;;;;;;;;23.48;51.76;99633.97;4435392;32;19983;-90
2022/07/27 02:06:26;;;;;;;;;;;;;;;23.64;51.33;99632.44;4435140;32;20432;-88
2022/07/27 02:08:53;;;;;;;;;;;;;;;23.54;51.51;99626.66;4418611;32;19993;-90
2022/07/27 02:14:05;;;;;;;;;;;;;;;23.47;51.92;99621.69;4432647;32;19987;-88
2022/07/27 02:16:32;;;;;;;;;;;;;;;23.57;51.31;99623.88;4440326;32;20028;-86
2022/07/27 02:18:59;;;;;;;;;;;;;;;23.43;51.58;99631.53;4439862;32;20008;-90
2022/07/27 02:21:30;;;;;;;;;;;;;;;23.55;51.36;99631.03;4432187;32;19981;-89
2022/07/27 02:23:58;;;;;;;;;;;;;;;23.46;51.56;99630.56;4434990;32;20323;-91
2022/07/27 02:26:26;;;;;;;;;;;;;;;23.38;51.85;99628.19;4434767;32;19984;-92
2022/07/27 02:28:53;;;;;;;;;;;;;;;23.50;51.22;99633.00;4420143;32;20019;-90
2022/07/27 02:31:20;;;;;;;;;;;;;;;23.31;51.65;99637.28;4438331;32;20033;-88
2022/07/27 02:33:47;;;;;;;;;;;;;;;23.53;50.58;99638.16;4439639;32;19978;-91
2022/07/27 02:36:13;;;;;;;;;;;;;;;23.43;50.82;99636.81;4434809;32;20766;-89
2022/07/27 02:38:40;;;;;;;;;;;;;;;23.39;51.09;99635.22;4439703;32;20810;-90
2022/07/27 02:41:08;;;;;;;;;;;;;;;23.46;50.62;99635.84;4405033;32;20012;-90
2022/07/27 02:43:34;;;;;;;;;;;;;;;23.49;50.45;99631.28;4416854;32;20019;-89
2022/07/27 02:46:01;;;;;;;;;;;;;;;23.38;51.03;99633.47;4417514;32;20044;-89
2022/07/27 02:48:28;;;;;;;;;;;;;;;23.30;51.08;99631.16;4417432;32;19978;-89
2022/07/27 02:50:58;;;;;;;;;;;;;;;23.33;50.77;99640.75;4403856;32;20053;-88
2022/07/27 02:53:25;;;;;;;;;;;;;;;23.10;51.71;99634.59;4404064;32;20524;-90
2022/07/27 02:55:52;;;;;;;;;;;;;;;23.13;51.79;99623.03;4401865;32;20004;-90
2022/07/27 02:58:20;;;;;;;;;;;;;;;23.17;51.59;99630.78;4400566;32;19996;-90
2022/07/27 03:00:47;;;;;;;;;;;;;;;23.06;51.70;99637.38;4401221;32;20021;-89
2022/07/27 03:03:14;;;;;;;;;;;;;;;23.25;51.00;99637.53;4406635;32;20005;-89
2022/07/27 03:05:41;;;;;;;;;;;;;;;23.10;51.44;99644.25;4410228;32;19990;-90
2022/07/27 03:08:08;;;;;;;;;;;;;;;23.11;51.36;99635.44;4425580;32;20366;-90
2022/07/27 03:10:35;;;;;;;;;;;;;;;23.02;51.64;99636.66;4418284;32;19986;-90
2022/07/27 03:13:02;;;;;;;;;;;;;;;23.08;51.35;99641.69;4432485;32;19978;-90
2022/07/27 03:15:31;;;;;;;;;;;;;;;23.11;51.38;99640.72;4432221;32;20370;-88
2022/07/27 03:17:58;;;;;;;;;;;;;;;22.73;52.61;99638.56;4426961;32;20072;-92
2022/07/27 03:20:24;;;;;;;;;;;;;;;23.05;51.18;99636.53;4415565;32;20291;-92
2022/07/27 03:22:53;;;;;;;;;;;;;;;23.00;51.38;99638.47;4416734;32;20468;-90
2022/07/27 03:25:19;;;;;;;;;;;;;;;23.03;51.18;99624.31;4403104;32;20327;-85
2022/07/27 03:27:46;;;;;;;;;;;;;;;23.17;50.74;99630.78;4423815;32;19989;-88
2022/07/27 03:30:13;;;;;;;;;;;;;;;22.97;51.04;99634.19;4417951;32;19990;-88
2022/07/27 03:32:40;;;;;;;;;;;;;;;23.07;51.14;99639.97;4416916;32;20008;-88
2022/07/27 03:35:07;;;;;;;;;;;;;;;22.97;51.25;99644.75;4402915;32;19986;-91
2022/07/27 03:37:34;;;;;;;;;;;;;;;22.89;51.62;99635.37;4425449;32;20008;-88
2022/07/27 03:40:01;;;;;;;;;;;;;;;23.05;51.25;99640.97;4421323;32;19996;-88
2022/07/27 03:42:28;;;;;;;;;;;;;;;22.86;51.93;99640.75;4420622;32;20049;-93
2022/07/27 03:44:56;;;;;;;;;;;;;;;23.02;51.33;99647.22;4402474;32;19978;-86
2022/07/27 03:47:23;;;;;;;;;;;;;;;23.02;51.29;99652.50;4403096;32;19990;-86
2022/07/27 03:49:51;;;;;;;;;;;;;;;22.82;52.14;99655.00;4415061;32;20004;-88
2022/07/27 03:52:18;;;;;;;;;;;;;;;23.12;51.42;99663.56;4411318;32;20023;-87
2022/07/27 03:54:47;;;;;;;;;;;;;;;22.91;52.04;99651.97;4415274;32;19982;-89
2022/07/27 03:57:14;;;;;;;;;;;;;;;22.91;52.13;99650.22;4390930;32;19989;-88
2022/07/27 03:59:41;;;;;;;;;;;;;;;23.01;51.95;99648.13;4396700;32;19990;-88
2022/07/27 04:02:08;;;;;;;;;;;;;;;23.11;51.58;99649.50;4416284;32;19982;-88
2022/07/27 04:04:35;;;;;;;;;;;;;;;23.01;52.13;99650.78;4424676;32;20032;-87
2022/07/27 04:07:02;;;;;;;;;;;;;;;22.88;52.41;99644.22;4415476;32;20461;-88
2022/07/27 04:09:28;;;;;;;;;;;;;;;22.89;52.71;99645.91;4418169;32;20003;-90
2022/07/27 04:11:57;;;;;;;;;;;;;;;22.86;52.68;99656.59;4423256;32;20055;-90
2022/07/27 04:14:25;;;;;;;;;;;;;;;22.90;52.56;99653.78;4416298;32;20008;-90
2022/07/27 04:16:51;;;;;;;;;;;;;;;22.78;53.21;99654.22;4405164;32;20005;-89
2022/07/27 04:19:19;;;;;;;;;;;;;;;22.81;53.31;99658.53;4401380;32;19974;-90
2022/07/27 04:21:45;;;;;;;;;;;;;;;22.88;53.31;99655.63;4400209;32;19975;-91
2022/07/27 04:24:12;;;;;;;;;;;;;;;22.94;53.17;99659.81;4405284;32;20036;-87
2022/07/27 04:26:54;;;;;;;;;;;;;;;;;;;;;
2022/07/27 04:29:31;;;;;;;;;;;;;;;23.09;52.18;99669.81;4409479;32;19981;-89
2022/07/27 04:32:00;;;;;;;;;;;;;;;23.03;52.86;99659.47;4413266;32;19981;-88
2022/07/27 04:34:26;;;;;;;;;;;;;;;22.98;53.01;99666.72;4117918;32;10003692;-86
2022/07/27 04:36:53;;;;;;;;;;;;;;;23.02;53.00;99663.06;4431266;32;20029;-86
2022/07/27 04:39:20;;;;;;;;;;;;;;;23.20;52.23;99657.06;4423919;32;19973;-89
2022/07/27 04:41:47;;;;;;;;;;;;;;;23.41;50.81;99657.13;4424471;32;19997;-88
2022/07/27 04:44:14;;;;;;;;;;;;;;;23.35;51.23;99654.75;4421900;32;20041;-80
2022/07/27 04:46:41;;;;;;;;;;;;;;;23.37;51.07;99655.53;4431202;32;19996;-80
2022/07/27 04:49:08;;;;;;;;;;;;;;;23.40;50.85;99647.50;4426844;32;19993;-80
2022/07/27 04:51:35;;;;;;;;;;;;;;;23.49;50.86;99655.06;4418240;32;19954;-78
2022/07/27 05:21:29;;;;;;;;;;;;;;;23.87;50.05;99673.84;4421410;27;19996;-79
2022/07/27 05:23:56;;;;;;;;;;;;;;;23.93;49.41;99684.16;4304141;33;19992;-78
2022/07/27 05:26:22;;;;;;;;;;;;;;;24.10;48.94;99686.94;4304890;33;19995;-79
2022/07/27 05:28:49;;;;;;;;;;;;;;;24.06;49.22;99684.50;4295839;33;20044;-80
2022/07/27 05:31:17;;;;;;;;;;;;;;;24.20;48.48;99691.84;4295643;33;20318;-80
2022/07/27 05:33:44;;;;;;;;;;;;;;;24.21;49.06;99682.97;4297295;33;19992;-79
2022/07/27 05:36:16;;;;;;;;;;;;;;;24.13;49.77;99691.25;4295892;33;19992;-79
2022/07/27 05:38:43;;;;;;;;;;;;;;;24.14;50.60;99693.81;4316854;33;19968;-79
2022/07/27 05:41:09;;;;;;;;;;;;;;;24.24;51.00;99693.44;4304411;33;20048;-79
2022/07/27 05:43:36;;;;;;;;;;;;;;;24.35;49.78;99691.19;4295667;33;19998;-78
2022/07/27 05:46:03;;;;;;;;;;;;;;;24.29;49.30;99694.09;4299597;33;20027;-79
2022/07/27 05:48:30;;;;;;;;;;;;;;;24.37;49.10;99689.34;4310121;33;19984;-79
2022/07/27 05:50:57;;;;;;;;;;;;;;;24.61;48.04;99694.53;4303036;33;19984;-80
2022/07/27 05:53:24;;;;;;;;;;;;;;;24.70;47.90;99691.47;4298276;33;20314;-80
2022/07/27 05:55:51;;;;;;;;;;;;;;;24.74;47.46;99693.91;4296090;33;20319;-79
2022/07/27 05:58:28;;;;;;;;;;;;;;;24.83;47.03;99703.25;4287877;33;19980;-80
2022/07/27 06:00:55;;;;;;;;;;;;;;;24.79;46.93;99706.94;4296842;33;20001;-80
2022/07/27 06:03:22;;;;;;;;;;;;;;;24.71;47.30;99709.06;4294988;33;19992;-80
2022/07/27 06:05:49;;;;;;;;;;;;;;;24.84;46.95;99710.25;4006238;33;10004527;-80
2022/07/27 06:08:16;;;;;;;;;;;;;;;24.80;47.34;99712.19;4309232;33;20032;-80
2022/07/27 06:10:43;;;;;;;;;;;;;;;24.87;46.65;99712.75;4302070;33;19988;-80
2022/07/27 06:13:13;;;;;;;;;;;;;;;25.06;45.86;99724.25;4294680;33;19996;-79
2022/07/27 06:15:39;;;;;;;;;;;;;;;25.16;45.79;99721.22;4295101;33;20008;-80
2022/07/27 06:18:13;;;;;;;;;;;;;;;25.22;46.18;99720.94;4296003;33;19996;-80
2022/07/27 06:20:41;;;;;;;;;;;;;;;25.20;45.19;99722.78;4301868;33;20071;-80
2022/07/27 06:23:09;;;;;;;;;;;;;;;25.35;44.69;99719.41;4296128;33;20000;-79
2022/07/27 06:25:36;;;;;;;;;;;;;;;25.63;44.67;99720.78;4299734;33;20029;-80
2022/07/27 06:28:03;;;;;;;;;;;;;;;25.65;44.46;99718.87;4297955;33;19996;-81
2022/07/27 06:30:31;;;;;;;;;;;;;;;25.77;44.64;99723.59;4294572;33;20025;-80
2022/07/27 06:32:58;;;;;;;;;;;;;;;25.99;44.29;99718.16;4294986;33;20003;-79
2022/07/27 06:35:25;;;;;;;;;;;;;;;26.25;42.67;99714.19;4299950;33;20417;-82
2022/07/27 06:37:52;;;;;;;;;;;;;;;26.44;39.85;99714.97;4297191;33;20003;-79
2022/07/27 06:40:19;;;;;;;;;;;;;;;26.98;38.58;99719.31;4300699;33;19986;-80
2022/07/27 06:42:46;;;;;;;;;;;;;;;27.29;38.60;99718.53;4297548;33;20019;-81
2022/07/27 06:45:13;;;;;;;;;;;;;;;27.65;39.25;99720.94;4301473;33;20353;-81
2022/07/27 06:47:40;;;;;;;;;;;;;;;28.06;37.11;99709.75;4309506;33;20473;-81
2022/07/27 06:50:16;;;;;;;;;;;;;;;28.31;36.01;99708.31;4307404;33;20007;-81
2022/07/27 06:52:43;;;;;;;;;;;;;;;28.58;35.23;99704.03;4283824;33;20003;-81
2022/07/27 06:55:10;;;;;;;;;;;;;;;28.97;36.09;99702.50;4307405;33;20043;-81
2022/07/27 06:57:37;;;;;;;;;;;;;;;29.19;34.81;99702.91;4301677;33;20002;-81
2022/07/27 07:00:04;;;;;;;;;;;;;;;29.34;36.83;99701.09;4309631;33;19976;-81
2022/07/27 07:02:31;;;;;;;;;;;;;;;29.67;34.27;99697.22;4304136;33;19999;-81
2022/07/27 07:04:58;;;;;;;;;;;;;;;29.86;32.98;99702.22;4305206;33;20024;-81
2022/07/27 07:07:25;;;;;;;;;;;;;;;30.07;30.31;99689.25;4305215;33;20059;-80
2022/07/27 07:09:51;;;;;;;;;;;;;;;29.88;33.79;99700.31;4302158;33;20055;-81
2022/07/27 07:12:19;;;;;;;;;;;;;;;30.11;30.12;99690.75;4310849;33;20461;-81
2022/07/27 07:14:45;;;;;;;;;;;;;;;29.87;34.53;99694.13;4280166;33;20000;-81
2022/07/27 07:17:12;;;;;;;;;;;;;;;30.48;30.12;99691.81;4266216;33;20453;-80
2022/07/27 07:19:40;;;;;;;;;;;;;;;30.66;29.90;99684.31;4272647;33;20292;-81
2022/07/27 07:22:07;;;;;;;;;;;;;;;30.62;30.87;99690.00;4275296;33;20068;-82
2022/07/27 07:24:34;;;;;;;;;;;;;;;30.82;28.79;99689.47;4271597;33;19993;-81
2022/07/27 07:27:01;;;;;;;;;;;;;;;31.01;29.42;99684.53;4278567;33;19988;-81
2022/07/27 07:29:28;;;;;;;;;;;;;;;31.08;29.63;99686.78;4291758;33;20025;-81
2022/07/27 07:31:54;;;;;;;;;;;;;;;31.22;32.17;99684.84;4274670;33;20049;-81
2022/07/27 07:34:21;;;;;;;;;;;;;;;31.53;28.21;99681.78;4283388;33;20090;-81
2022/07/27 07:36:48;;;;;;;;;;;;;;;31.84;27.81;99678.53;4282169;33;20052;-80
2022/07/27 07:39:16;;;;;;;;;;;;;;;31.91;27.07;99671.78;4273338;33;19976;-80
2022/07/27 07:41:43;;;;;;;;;;;;;;;31.59;28.68;99678.63;4273691;33;20045;-81
2022/07/27 07:44:09;;;;;;;;;;;;;;;31.99;26.24;99678.38;4279884;33;20383;-80
2022/07/27 07:46:36;;;;;;;;;;;;;;;32.29;26.41;99678.75;4284886;33;20009;-81
2022/07/27 07:49:04;;;;;;;;;;;;;;;32.22;25.41;99669.44;4294348;33;19976;-82
2022/07/27 07:51:31;;;;;;;;;;;;;;;32.17;25.54;99671.63;4281601;33;20016;-83
2022/07/27 07:53:58;;;;;;;;;;;;;;;32.54;25.16;99668.81;4285328;33;19977;-81
2022/07/27 07:56:25;;;;;;;;;;;;;;;32.79;23.79;99673.94;4292792;33;20040;-81
2022/07/27 07:58:52;;;;;;;;;;;;;;;32.92;24.15;99672.97;4287184;33;20036;-81
2022/07/27 08:01:18;;;;;;;;;;;;;;;32.98;22.74;99675.22;4292908;33;20007;-80
2022/07/27 08:03:52;;;;;;;;;;;;;;;32.97;22.68;99670.84;4083223;33;10003726;-80
2022/07/27 08:06:19;;;;;;;;;;;;;;;33.12;22.56;99664.22;4288945;33;20041;-80
2022/07/27 08:08:45;;;;;;;;;;;;;;;33.21;23.48;99674.19;4283067;33;20011;-80
2022/07/27 08:11:12;;;;;;;;;;;;;;;33.16;24.20;99665.69;4295445;33;19981;-80
2022/07/27 08:13:39;;;;;;;;;;;;;;;33.48;22.19;99659.53;4297586;33;19999;-80
2022/07/27 08:16:06;;;;;;;;;;;;;;;33.70;22.03;99659.50;4295709;33;20316;-80
2022/07/27 08:18:33;;;;;;;;;;;;;;;33.37;22.22;99663.06;4292171;33;20028;-79
2022/07/27 08:21:00;;;;;;;;;;;;;;;33.26;23.82;99660.44;4297306;33;19976;-80
2022/07/27 08:23:27;;;;;;;;;;;;;;;33.70;23.02;99659.50;4286634;33;20394;-80
2022/07/27 08:25:54;;;;;;;;;;;;;;;33.30;24.88;99657.37;4301727;33;19989;-80
2022/07/27 08:28:21;;;;;;;;;;;;;;;33.39;22.01;99649.56;4294013;33;20044;-81
2022/07/27 08:30:48;;;;;;;;;;;;;;;33.48;22.34;99660.38;4293014;33;19984;-80
2022/07/27 08:33:15;;;;;;;;;;;;;;;33.58;24.66;99657.81;4301842;33;20007;-81
2022/07/27 08:35:43;;;;;;;;;;;;;;;33.85;22.78;99646.59;4296080;33;19977;-81
2022/07/27 08:38:10;;;;;;;;;;;;;;;34.22;21.60;99651.59;4296042;33;19987;-81
2022/07/27 08:40:37;;;;;;;;;;;;;;;33.67;23.08;99649.00;4304916;33;19984;-81
2022/07/27 08:43:10;;;;;;;;;;;;;;;33.69;23.50;99652.41;4296350;33;20032;-80
2022/07/27 08:45:40;;;;;;;;;;;;;;;33.82;22.89;99646.00;4304226;33;19999;-80
2022/07/27 08:48:10;;;;;;;;;;;;;;;34.39;20.10;99644.75;4283880;33;20321;-80
2022/07/27 08:50:37;;;;;;;;;;;;;;;34.06;21.80;99652.03;4296209;33;19992;-80
2022/07/27 08:53:05;;;;;;;;;;;;;;;34.16;20.93;99650.25;4296738;33;19992;-80
2022/07/27 08:55:39;;;;;;;;;;;;;;;34.28;20.21;99652.91;4305121;33;19992;-80
2022/07/27 08:58:07;;;;;;;;;;;;;;;34.36;20.84;99645.00;4309778;33;20662;-80
2022/07/27 09:00:34;;;;;;;;;;;;;;;34.28;21.49;99650.22;4305163;33;20085;-80
2022/07/27 09:03:01;;;;;;;;;;;;;;;34.46;20.82;99641.41;4302222;33;21189;-79
2022/07/27 09:05:29;;;;;;;;;;;;;;;34.84;19.79;99649.81;4310409;33;20401;-80
2022/07/27 09:08:13;;;;;;;;;;;;;;;34.41;20.58;99642.78;4149009;33;5085970;-80
2022/07/27 09:10:40;;;;;;;;;;;;;;;34.46;20.00;99640.53;4307193;33;20027;-80
2022/07/27 09:13:16;;;;;;;;;;;;;;;34.85;19.68;99641.63;4306764;33;20061;-80
2022/07/27 09:15:45;;;;;;;;;;;;;;;34.72;20.23;99641.84;4306436;33;20007;-80
2022/07/27 09:18:36;;;;;;;;;;;;;;;34.81;20.59;99629.41;4320626;33;20368;-79
2022/07/27 09:21:06;;;;;;;;;;;;;;;34.38;20.94;99637.69;4322864;33;19994;-81
2022/07/27 09:23:33;;;;;;;;;;;;;;;34.46;20.91;99636.03;4302640;33;20027;-80
2022/07/27 09:26:16;;;;;;;;;;;;;;;33.95;20.62;99642.19;4295398;33;20067;-80
2022/07/27 09:28:59;;;;;;;;;;;;;;;34.32;20.58;99643.56;4283064;33;19984;-80
2022/07/27 09:31:26;;;;;;;;;;;;;;;34.66;20.35;99638.84;4301996;33;19976;-80
2022/07/27 09:33:53;;;;;;;;;;;;;;;34.86;21.39;99637.94;4298719;33;20685;-80
2022/07/27 09:36:21;;;;;;;;;;;;;;;34.69;21.33;99635.91;3935086;33;10003697;-79
2022/07/27 09:38:55;;;;;;;;;;;;;;;35.09;21.06;99627.84;4240572;33;20057;-80
2022/07/27 09:41:44;;;;;;;;;;;;;;;35.26;20.95;99633.53;4257963;33;20024;-79
2022/07/27 09:44:13;;;;;;;;;;;;;;;35.21;19.96;99639.34;4283709;33;20348;-80
2022/07/27 09:46:58;;;;;;;;;;;;;;;34.90;20.31;99633.13;4298208;33;20463;-79
2022/07/27 09:49:26;;;;;;;;;;;;;;;35.50;19.07;99641.25;4301903;33;20007;-80
2022/07/27 09:51:57;;;;;;;;;;;;;;;35.29;19.19;99630.56;4288860;33;19977;-79
2022/07/27 09:54:40;;;;;;;;;;;;;;;35.33;19.65;99629.31;4302042;33;19992;-79
2022/07/27 09:57:07;;;;;;;;;;;;;;;35.81;18.67;99633.91;4298678;33;20322;-79
2022/07/27 09:59:34;;;;;;;;;;;;;;;35.52;18.89;99634.72;4302656;33;19992;-79
2022/07/27 10:02:01;;;;;;;;;;;;;;;35.54;18.90;99635.44;4297902;33;20016;-80
2022/07/27 10:04:28;;;;;;;;;;;;;;;35.82;18.47;99636.47;4296827;33;20350;-79
2022/07/27 10:06:55;;;;;;;;;;;;;;;35.94;17.64;99634.47;4302815;33;20006;-79
2022/07/27 10:09:36;;;;;;;;;;;;;;;35.39;19.09;99636.84;4275117;33;19984;-79
2022/07/27 10:12:03;;;;;;;;;;;;;;;35.21;20.56;99631.28;4309677;33;20043;-81
2022/07/27 10:14:31;;;;;;;;;;;;;;;35.35;18.61;99632.72;4305231;33;20028;-79
2022/07/27 10:16:58;;;;;;;;;;;;;;;35.55;19.84;99629.09;4300046;33;19994;-79
2022/07/27 10:19:27;;;;;;;;;;;;;;;35.88;18.40;99623.41;4294668;33;19989;-79
2022/07/27 10:21:54;;;;;;;;;;;;;;;35.86;18.38;99621.69;4295962;33;19988;-79
2022/07/27 10:24:24;;;;;;;;;;;;;;;36.06;18.54;99627.97;4302734;33;20021;-80
2022/07/27 10:26:52;;;;;;;;;;;;;;;35.73;19.44;99620.31;4306378;33;19979;-80
2022/07/27 10:29:19;;;;;;;;;;;;;;;35.54;18.33;99621.16;4314391;33;20071;-80
2022/07/27 10:31:52;;;;;;;;;;;;;;;35.55;17.84;99618.31;4314773;33;19980;-79
2022/07/27 10:34:38;;;;;;;;;;;;;;;35.36;17.61;99611.06;4307195;33;19980;-80
2022/07/27 10:37:09;;;;;;;;;;;;;;;35.75;18.71;99608.41;4305939;33;20430;-80
2022/07/27 10:39:41;;;;;;;;;;;;;;;35.99;17.58;99610.63;4306661;33;19981;-80
2022/07/27 10:42:19;;;;;;;;;;;;;;;35.48;18.48;99608.22;4303791;33;20048;-79
2022/07/27 10:44:52;;;;;;;;;;;;;;;35.71;18.80;99608.84;4313270;33;20035;-80
2022/07/27 10:47:38;;;;;;;;;;;;;;;35.75;18.65;99604.84;4312592;33;19984;-80
2022/07/27 10:50:10;;;;;;;;;;;;;;;36.08;18.20;99599.00;4307411;33;20043;-79
2022/07/27 10:52:42;;;;;;;;;;;;;;;35.87;19.77;99601.03;4311146;33;20007;-80
2022/07/27 10:55:27;;;;;;;;;;;;;;;35.78;18.78;99602.72;4308201;33;20010;-80
2022/07/27 10:57:56;;;;;;;;;;;;;;;35.49;19.11;99602.69;4308330;33;20003;-80
2022/07/27 11:00:41;;;;;;;;;;;;;;;35.86;17.68;99600.16;4307213;33;20000;-80
2022/07/27 11:03:08;;;;;;;;;;;;;;;35.01;19.23;99598.06;4305881;33;20031;-80
2022/07/27 11:05:35;;;;;;;;;;;;;;;35.46;19.31;99607.53;4313122;33;20011;-80
2022/07/27 11:08:27;;;;;;;;;;;;;;;35.84;17.85;99590.53;4308885;33;20027;-80
2022/07/27 11:11:14;;;;;;;;;;;;;;;35.86;18.54;99585.84;4320483;33;19988;-80
2022/07/27 11:13:41;;;;;;;;;;;;;;;35.60;17.83;99578.34;4305936;33;20007;-80
2022/07/27 11:16:09;;;;;;;;;;;;;;;35.69;18.91;99582.03;4303765;33;20011;-79
2022/07/27 11:18:53;;;;;;;;;;;;;;;36.03;17.91;99585.16;4306738;33;20004;-79
2022/07/27 11:21:20;;;;;;;;;;;;;;;36.08;17.51;99577.47;4306515;33;19992;-80
2022/07/27 11:23:53;;;;;;;;;;;;;;;36.19;17.90;99578.31;4307756;33;20336;-79
2022/07/27 11:26:21;;;;;;;;;;;;;;;35.37;18.38;99580.44;4305432;33;19984;-80
2022/07/27 11:28:48;;;;;;;;;;;;;;;35.58;18.83;99564.19;4303354;33;19995;-78
2022/07/27 11:31:15;;;;;;;;;;;;;;;36.19;18.26;99572.91;4308207;33;19976;-80
2022/07/27 11:34:03;;;;;;;;;;;;;;;35.63;19.05;99572.66;4304493;33;19988;-80
2022/07/27 11:36:37;;;;;;;;;;;;;;;35.66;18.28;99576.94;4303292;33;20008;-79
2022/07/27 11:39:05;;;;;;;;;;;;;;;35.54;18.95;99572.69;4291260;33;19996;-79
2022/07/27 11:41:33;;;;;;;;;;;;;;;34.81;17.49;99574.78;4314990;33;20010;-77
2022/07/27 11:44:20;;;;;;;;;;;;;;;34.80;17.80;99573.06;4318382;33;19983;-78
2022/07/27 11:46:47;;;;;;;;;;;;;;;35.20;18.17;99570.38;4316567;33;20319;-78
2022/07/27 11:49:15;;;;;;;;;;;;;;;35.23;18.72;99574.59;4304893;33;19991;-79
2022/07/27 11:51:44;;;;;;;;;;;;;;;35.39;17.75;99580.31;4322104;33;20000;-79
2022/07/27 11:54:11;;;;;;;;;;;;;;;35.53;18.92;99577.22;4317182;33;19968;-79
2022/07/27 11:56:42;;;;;;;;;;;;;;;35.39;17.85;99574.94;4314618;33;20023;-79
2022/07/27 11:59:16;;;;;;;;;;;;;;;35.38;18.22;99573.22;4323193;33;20062;-79
2022/07/27 12:01:45;;;;;;;;;;;;;;;35.75;18.22;99575.22;4316365;33;19980;-79
2022/07/27 12:04:31;;;;;;;;;;;;;;;36.04;17.81;99576.06;4308597;33;19992;-80
2022/07/27 12:07:04;;;;;;;;;;;;;;;35.94;17.61;99577.91;4321121;33;20071;-78
2022/07/27 12:09:35;;;;;;;;;;;;;;;35.71;18.25;99568.44;4294217;33;19992;-79
2022/07/27 12:12:13;;;;;;;;;;;;;;;35.55;17.88;99559.09;4301621;33;19992;-80
2022/07/27 12:14:42;;;;;;;;;;;;;;;36.09;18.22;99549.53;4317086;33;20000;-79
2022/07/27 12:17:09;;;;;;;;;;;;;;;36.32;16.74;99557.25;4316131;33;20047;-80
2022/07/27 12:19:36;;;;;;;;;;;;;;;36.14;17.34;99549.09;4322683;33;20011;-80
2022/07/27 12:22:03;;;;;;;;;;;;;;;36.04;17.34;99542.88;4315083;33;20038;-80
2022/07/27 12:24:35;;;;;;;;;;;;;;;36.15;17.18;99545.38;4316595;33;20247;-80
2022/07/27 12:27:02;;;;;;;;;;;;;;;36.30;17.55;99543.06;4320587;33;20014;-80
2022/07/27 12:29:33;;;;;;;;;;;;;;;36.41;16.88;99533.94;4322299;33;20032;-81
2022/07/27 12:32:01;;;;;;;;;;;;;;;36.37;17.02;99530.69;4321495;33;20048;-80
2022/07/27 12:34:32;;;;;;;;;;;;;;;36.44;18.69;99539.91;4308069;32;19973;-79
2022/07/27 12:36:59;;;;;;;;;;;;;;;36.06;16.78;99530.97;4291833;33;20007;-81
2022/07/27 12:39:27;;;;;;;;;;;;;;;35.70;17.13;99537.09;4311606;33;20070;-80
2022/07/27 12:42:04;;;;;;;;;;;;;;;35.57;17.20;99530.16;4317223;33;20008;-80
2022/07/27 12:44:33;;;;;;;;;;;;;;;35.74;17.81;99520.53;4320292;33;19994;-79
2022/07/27 12:47:39;;;;;;;;;;;;;;;35.85;20.05;99527.56;4317140;33;20047;-80
2022/07/27 12:50:00;;;;;;;;;;;;;;;35.28;18.20;99521.22;4317212;33;19996;-79
2022/07/27 12:52:27;;;;;;;;;;;;;;;35.77;18.02;99519.34;4303106;33;20787;-80
2022/07/27 12:54:54;;;;;;;;;;;;;;;35.84;17.86;99517.81;4316319;33;19980;-79
2022/07/27 12:57:21;;;;;;;;;;;;;;;35.93;17.32;99514.25;4317823;33;19992;-79
2022/07/27 13:00:10;;;;;;;;;;;;;;;35.74;18.37;99508.88;4313915;33;19975;-80
2022/07/27 13:02:37;;;;;;;;;;;;;;;35.56;18.67;99511.47;4319751;33;20059;-80
2022/07/27 13:05:04;;;;;;;;;;;;;;;35.86;17.43;99507.72;4314506;33;19979;-80
2022/07/27 13:07:31;;;;;;;;;;;;;;;36.00;18.55;99511.81;4303077;33;20338;-80
2022/07/27 13:09:58;;;;;;;;;;;;;;;36.04;16.79;99506.00;4294297;33;20047;-80
2022/07/27 13:12:29;;;;;;;;;;;;;;;36.02;17.18;99502.59;4303125;33;20060;-80
2022/07/27 13:14:56;;;;;;;;;;;;;;;35.81;19.94;99510.00;4306851;33;19976;-79
2022/07/27 13:17:23;;;;;;;;;;;;;;;35.67;17.66;99502.38;4295669;33;20071;-78
2022/07/27 13:19:50;;;;;;;;;;;;;;;35.24;19.12;99500.97;4294641;33;20160;-79
2022/07/27 13:22:17;;;;;;;;;;;;;;;34.93;20.68;99503.72;4308432;33;19988;-78
2022/07/27 13:24:44;;;;;;;;;;;;;;;34.63;20.11;99507.38;4315363;33;19980;-79
2022/07/27 13:27:12;;;;;;;;;;;;;;;34.55;20.81;99504.50;4316311;33;20027;-79